Time;durP1;ratioP1;P1;durP2;ratioP2;P2;SDS_P1;SDS_P2;PMS_P1;PMS_P2;Temp;Humidity;BMP_temperature;BMP_pressure;BME280_temperature;BME280_humidity;BME280_pressure;Samples;Min_cycle;Max_cycle;Signal;HPM_P1;HPM_P2
2022/03/13 00:01:04;;;;;;;;;;;6.40;91.00;;;;;;5073722;28;19924;-81
2022/03/13 00:03:32;;;;;;;;;;;6.40;91.10;;;;;;5090268;28;19970;-75
2022/03/13 00:05:59;;;;;;;;;;;6.30;91.10;;;;;;5089436;28;20019;-77
2022/03/13 00:08:27;;;;;;;;;;;6.30;91.10;;;;;;5081668;28;20014;-76
2022/03/13 00:10:56;;;;;;;;;;;6.30;91.00;;;;;;5090943;28;20014;-74
2022/03/13 00:13:24;;;;;;;;;;;6.30;90.90;;;;;;5088747;28;19928;-76
2022/03/13 00:15:52;;;;;;;;;;;6.20;90.90;;;;;;5086615;28;20368;-76
2022/03/13 00:18:18;;;;;;;;;;;6.20;91.10;;;;;;5082243;28;19935;-75
2022/03/13 00:20:45;;;;;;;;;;;6.10;91.10;;;;;;5084248;28;19932;-74
2022/03/13 00:23:12;;;;;;;;;;;6.00;91.20;;;;;;5083198;28;19986;-76
2022/03/13 00:25:38;;;;;;;;;;;5.90;91.40;;;;;;5083663;28;20387;-75
2022/03/13 00:28:05;;;;;;;;;;;5.90;91.40;;;;;;5086128;28;20406;-75
2022/03/13 00:30:31;;;;;;;;;;;5.90;91.50;;;;;;5089328;28;19932;-76
2022/03/13 00:33:00;;;;;;;;;;;5.80;91.50;;;;;;5100828;28;19939;-76
2022/03/13 00:35:26;;;;;;;;;;;5.80;91.40;;;;;;5086132;28;19972;-76
2022/03/13 00:37:53;;;;;;;;;;;5.70;91.60;;;;;;5089875;28;20299;-75
2022/03/13 00:40:20;;;;;;;;;;;5.70;91.50;;;;;;5085381;28;19931;-77
2022/03/13 00:42:48;;;;;;;;;;;5.70;91.50;;;;;;5080412;28;19932;-76
2022/03/13 00:45:14;;;;;;;;;;;5.70;91.50;;;;;;5081591;28;20038;-75
2022/03/13 00:47:41;;;;;;;;;;;5.70;91.40;;;;;;5079067;28;19936;-76
2022/03/13 00:50:07;;;;;;;;;;;5.70;91.40;;;;;;5079805;28;19932;-80
2022/03/13 00:52:34;;;;;;;;;;;5.70;91.20;;;;;;5090182;28;19924;-75
2022/03/13 00:55:01;;;;;;;;;;;5.70;91.40;;;;;;5082948;28;19935;-74
2022/03/13 00:57:29;;;;;;;;;;;5.70;91.40;;;;;;5089097;28;19931;-76
2022/03/13 00:59:55;;;;;;;;;;;5.70;91.30;;;;;;5085796;28;19924;-76
2022/03/13 01:02:22;;;;;;;;;;;5.70;91.10;;;;;;5089725;28;19954;-77
2022/03/13 01:04:48;;;;;;;;;;;5.70;91.20;;;;;;5091206;28;19931;-77
2022/03/13 01:07:15;;;;;;;;;;;5.60;91.30;;;;;;5090556;28;19977;-75
2022/03/13 01:09:41;;;;;;;;;;;5.60;91.20;;;;;;5085408;28;19932;-74
2022/03/13 01:12:08;;;;;;;;;;;5.60;91.30;;;;;;5090556;28;19924;-75
2022/03/13 01:14:35;;;;;;;;;;;5.60;91.40;;;;;;5087136;28;19925;-74
2022/03/13 01:17:01;;;;;;;;;;;5.50;91.70;;;;;;5090906;28;19924;-74
2022/03/13 01:19:28;;;;;;;;;;;5.50;91.70;;;;;;5076282;28;19928;-76
2022/03/13 01:21:54;;;;;;;;;;;5.50;91.70;;;;;;5078842;28;19931;-76
2022/03/13 01:24:21;;;;;;;;;;;5.50;91.70;;;;;;5083782;28;20367;-75
2022/03/13 01:26:49;;;;;;;;;;;5.40;91.90;;;;;;5079845;28;19924;-75
2022/03/13 01:29:17;;;;;;;;;;;5.40;91.90;;;;;;5084970;28;19924;-80
2022/03/13 01:31:43;;;;;;;;;;;5.40;92.00;;;;;;5090446;28;19924;-78
2022/03/13 01:34:10;;;;;;;;;;;5.40;91.90;;;;;;5080033;28;19928;-75
2022/03/13 01:36:36;;;;;;;;;;;5.40;91.80;;;;;;5105137;28;19924;-75
2022/03/13 01:39:03;;;;;;;;;;;5.40;92.20;;;;;;5082714;28;19924;-77
2022/03/13 01:41:30;;;;;;;;;;;5.40;92.00;;;;;;5086342;28;19928;-75
2022/03/13 01:43:56;;;;;;;;;;;5.40;92.10;;;;;;5084486;28;19954;-74
2022/03/13 01:46:23;;;;;;;;;;;5.40;92.40;;;;;;5076358;28;19935;-75
2022/03/13 01:48:49;;;;;;;;;;;5.40;92.10;;;;;;5087510;28;19955;-75
2022/03/13 01:51:16;;;;;;;;;;;5.40;92.10;;;;;;5082694;28;19924;-76
2022/03/13 01:53:42;;;;;;;;;;;5.30;92.50;;;;;;5085838;28;20358;-76
2022/03/13 01:56:09;;;;;;;;;;;5.30;92.40;;;;;;5081730;28;19931;-76
2022/03/13 01:58:35;;;;;;;;;;;5.20;92.50;;;;;;5080606;28;19924;-76
2022/03/13 02:01:02;;;;;;;;;;;5.20;92.60;;;;;;5088574;28;19924;-75
2022/03/13 02:03:28;;;;;;;;;;;5.20;92.90;;;;;;5089757;28;19970;-75
2022/03/13 02:05:55;;;;;;;;;;;5.20;92.90;;;;;;5085065;28;20244;-76
2022/03/13 02:08:21;;;;;;;;;;;5.20;93.10;;;;;;5087387;28;19931;-75
2022/03/13 02:10:48;;;;;;;;;;;5.20;93.60;;;;;;5084499;28;20363;-75
2022/03/13 02:13:14;;;;;;;;;;;5.10;93.80;;;;;;5093295;28;19924;-81
2022/03/13 02:15:41;;;;;;;;;;;5.10;93.60;;;;;;5087396;28;19928;-76
2022/03/13 02:18:07;;;;;;;;;;;5.10;93.40;;;;;;5098846;28;19928;-75
2022/03/13 02:20:34;;;;;;;;;;;5.10;93.70;;;;;;5090656;28;19931;-75
2022/03/13 02:23:01;;;;;;;;;;;5.10;94.30;;;;;;5082147;28;19924;-76
2022/03/13 02:25:31;;;;;;;;;;;5.10;94.10;;;;;;5084249;28;19928;-76
2022/03/13 02:27:58;;;;;;;;;;;5.10;94.50;;;;;;5090247;28;19924;-75
2022/03/13 02:30:24;;;;;;;;;;;5.10;94.30;;;;;;5073969;28;19931;-74
2022/03/13 02:32:51;;;;;;;;;;;5.00;95.10;;;;;;5087950;28;19924;-77
2022/03/13 02:35:17;;;;;;;;;;;5.00;94.90;;;;;;5088384;28;19924;-82
2022/03/13 02:37:44;;;;;;;;;;;5.00;95.00;;;;;;5078562;28;19924;-76
2022/03/13 02:40:10;;;;;;;;;;;5.00;94.80;;;;;;5104029;28;19932;-76
2022/03/13 02:42:37;;;;;;;;;;;5.00;95.10;;;;;;5086349;28;20582;-75
2022/03/13 02:45:03;;;;;;;;;;;5.00;95.00;;;;;;5109783;28;20011;-75
2022/03/13 02:47:30;;;;;;;;;;;4.90;95.40;;;;;;5088888;28;19935;-76
2022/03/13 02:49:56;;;;;;;;;;;5.00;95.40;;;;;;5091995;28;19924;-76
2022/03/13 02:52:23;;;;;;;;;;;4.90;95.30;;;;;;5092401;28;19930;-78
2022/03/13 02:54:50;;;;;;;;;;;4.90;95.20;;;;;;5090485;28;19928;-74
2022/03/13 02:57:16;;;;;;;;;;;4.90;95.40;;;;;;5090209;28;19931;-74
2022/03/13 02:59:43;;;;;;;;;;;4.90;95.10;;;;;;5091584;28;19924;-74
2022/03/13 03:02:09;;;;;;;;;;;4.90;95.80;;;;;;5075435;28;19924;-75
2022/03/13 03:04:36;;;;;;;;;;;4.80;95.80;;;;;;5079974;28;19931;-76
2022/03/13 03:07:02;;;;;;;;;;;4.90;95.60;;;;;;5092985;28;19924;-74
2022/03/13 03:09:30;;;;;;;;;;;4.80;96.10;;;;;;5084954;28;19924;-75
2022/03/13 03:11:57;;;;;;;;;;;4.70;96.30;;;;;;5080047;28;19925;-75
2022/03/13 03:14:23;;;;;;;;;;;4.70;96.40;;;;;;5085957;28;19931;-75
2022/03/13 03:16:50;;;;;;;;;;;4.70;96.20;;;;;;5075357;28;19935;-75
2022/03/13 03:19:16;;;;;;;;;;;4.70;96.20;;;;;;5075078;28;19935;-74
2022/03/13 03:21:43;;;;;;;;;;;4.70;96.30;;;;;;5088487;28;19935;-75
2022/03/13 03:24:09;;;;;;;;;;;4.60;96.50;;;;;;5086982;28;20296;-75
2022/03/13 03:26:36;;;;;;;;;;;4.60;96.70;;;;;;5082370;28;19931;-73
2022/03/13 03:29:02;;;;;;;;;;;4.60;96.40;;;;;;5089859;28;19985;-76
2022/03/13 03:31:29;;;;;;;;;;;4.60;96.80;;;;;;5081216;28;19924;-76
2022/03/13 03:33:55;;;;;;;;;;;4.60;96.80;;;;;;5083016;28;19931;-75
2022/03/13 03:36:22;;;;;;;;;;;4.50;97.30;;;;;;5085022;28;19924;-81
2022/03/13 03:38:48;;;;;;;;;;;4.50;96.80;;;;;;5084777;28;19931;-75
2022/03/13 03:41:15;;;;;;;;;;;4.50;96.90;;;;;;5077775;28;19931;-75
2022/03/13 03:43:42;;;;;;;;;;;4.50;96.80;;;;;;5092118;28;19931;-75
2022/03/13 03:46:08;;;;;;;;;;;4.50;97.30;;;;;;5091446;28;19924;-75
2022/03/13 03:48:35;;;;;;;;;;;4.50;97.50;;;;;;5072599;28;19925;-75
2022/03/13 03:51:01;;;;;;;;;;;4.40;97.30;;;;;;5080803;28;19928;-75
2022/03/13 03:53:28;;;;;;;;;;;4.50;97.00;;;;;;5091419;28;19931;-76
2022/03/13 03:55:56;;;;;;;;;;;4.50;97.00;;;;;;5092085;28;19924;-76
2022/03/13 03:58:23;;;;;;;;;;;4.40;97.10;;;;;;5084106;28;20010;-79
2022/03/13 04:00:49;;;;;;;;;;;4.50;97.20;;;;;;5090280;28;19924;-75
2022/03/13 04:03:16;;;;;;;;;;;4.40;97.20;;;;;;5091660;28;19928;-74
2022/03/13 04:05:42;;;;;;;;;;;4.40;97.20;;;;;;5084582;28;19928;-75
2022/03/13 04:08:09;;;;;;;;;;;4.40;96.90;;;;;;5083748;28;19924;-76
2022/03/13 04:10:35;;;;;;;;;;;4.40;96.90;;;;;;5082733;28;19928;-74
2022/03/13 04:13:02;;;;;;;;;;;4.40;96.60;;;;;;5078454;28;19932;-75
2022/03/13 04:15:29;;;;;;;;;;;4.50;96.30;;;;;;5084518;28;20407;-75
2022/03/13 04:17:56;;;;;;;;;;;4.50;96.10;;;;;;5081839;28;20011;-76
2022/03/13 04:20:23;;;;;;;;;;;4.50;96.00;;;;;;5090830;28;19975;-74
2022/03/13 04:22:49;;;;;;;;;;;4.50;95.80;;;;;;5076800;28;19932;-75
2022/03/13 04:25:16;;;;;;;;;;;4.50;95.70;;;;;;5087151;28;19924;-75
2022/03/13 04:27:44;;;;;;;;;;;4.50;95.40;;;;;;5083360;28;19931;-75
2022/03/13 04:30:10;;;;;;;;;;;4.50;95.50;;;;;;5083158;28;20010;-75
2022/03/13 04:32:41;;;;;;;;;;;4.50;95.30;;;;;;5083894;28;21341;-75
2022/03/13 04:35:07;;;;;;;;;;;4.50;95.10;;;;;;5086566;28;19924;-75
2022/03/13 04:37:34;;;;;;;;;;;4.40;95.20;;;;;;5084266;28;19932;-74
2022/03/13 04:40:00;;;;;;;;;;;4.40;95.10;;;;;;5074958;28;19924;-75
2022/03/13 04:42:27;;;;;;;;;;;4.40;95.10;;;;;;5079890;28;19924;-81
2022/03/13 04:44:53;;;;;;;;;;;4.40;95.00;;;;;;5082254;28;19928;-76
2022/03/13 04:47:20;;;;;;;;;;;4.40;94.80;;;;;;5087903;28;19928;-76
2022/03/13 04:49:46;;;;;;;;;;;4.30;94.70;;;;;;5089359;28;19924;-75
2022/03/13 04:52:13;;;;;;;;;;;4.30;94.60;;;;;;5086916;28;20027;-74
2022/03/13 04:54:40;;;;;;;;;;;4.30;94.70;;;;;;5078171;28;19939;-76
2022/03/13 04:57:06;;;;;;;;;;;4.30;94.50;;;;;;5082174;28;19932;-77
2022/03/13 04:59:33;;;;;;;;;;;4.20;94.40;;;;;;5084689;28;19931;-76
2022/03/13 05:02:00;;;;;;;;;;;4.20;94.40;;;;;;5087956;28;19924;-76
2022/03/13 05:04:26;;;;;;;;;;;4.20;94.50;;;;;;5082205;28;20003;-76
2022/03/13 05:06:53;;;;;;;;;;;4.10;94.70;;;;;;5085080;28;20272;-76
2022/03/13 05:09:20;;;;;;;;;;;4.20;94.40;;;;;;5077345;28;20518;-76
2022/03/13 05:11:46;;;;;;;;;;;4.10;94.40;;;;;;5090737;28;19924;-76
2022/03/13 05:14:13;;;;;;;;;;;4.00;94.60;;;;;;5089574;28;19928;-77
2022/03/13 05:16:39;;;;;;;;;;;4.00;94.60;;;;;;5090879;28;19924;-76
2022/03/13 05:19:06;;;;;;;;;;;3.80;94.50;;;;;;5089979;28;20286;-76
2022/03/13 05:21:33;;;;;;;;;;;3.70;94.80;;;;;;5083495;28;19948;-77
2022/03/13 05:24:00;;;;;;;;;;;3.60;94.70;;;;;;5081823;28;19932;-77
2022/03/13 05:26:28;;;;;;;;;;;3.60;94.80;;;;;;5094749;28;19959;-76
2022/03/13 05:28:54;;;;;;;;;;;3.50;94.90;;;;;;5084141;28;19928;-77
2022/03/13 05:31:21;;;;;;;;;;;3.40;95.00;;;;;;5085765;28;19930;-76
2022/03/13 05:33:47;;;;;;;;;;;3.40;95.00;;;;;;5093491;28;19924;-74
2022/03/13 05:36:15;;;;;;;;;;;3.30;95.10;;;;;;5086688;28;19932;-74
2022/03/13 05:38:41;;;;;;;;;;;3.20;95.20;;;;;;5093375;28;20386;-76
2022/03/13 05:41:08;;;;;;;;;;;3.20;95.10;;;;;;5090459;28;19939;-76
2022/03/13 05:43:35;;;;;;;;;;;3.10;95.20;;;;;;5092941;28;20020;-76
2022/03/13 05:46:01;;;;;;;;;;;3.10;95.20;;;;;;5084247;28;19928;-76
2022/03/13 05:48:30;;;;;;;;;;;3.10;94.90;;;;;;5088516;28;20363;-76
2022/03/13 05:50:57;;;;;;;;;;;3.10;94.90;;;;;;5092760;28;19935;-76
2022/03/13 05:53:23;;;;;;;;;;;3.20;94.80;;;;;;5093420;28;19930;-76
2022/03/13 05:55:50;;;;;;;;;;;3.10;94.70;;;;;;5093608;28;19925;-79
2022/03/13 05:58:17;;;;;;;;;;;3.20;94.50;;;;;;5091605;28;19931;-76
2022/03/13 06:00:52;;;;;;;;;;;3.20;94.30;;;;;;5080460;28;19932;-75
2022/03/13 06:03:18;;;;;;;;;;;3.20;94.30;;;;;;5083424;28;19931;-76
2022/03/13 06:05:45;;;;;;;;;;;3.20;94.30;;;;;;5094048;28;19924;-76
2022/03/13 06:08:11;;;;;;;;;;;3.20;94.10;;;;;;5077817;28;19929;-77
2022/03/13 06:10:38;;;;;;;;;;;3.20;94.00;;;;;;5080322;28;19932;-77
2022/03/13 06:13:04;;;;;;;;;;;3.20;94.00;;;;;;5093639;28;19924;-76
2022/03/13 06:15:31;;;;;;;;;;;3.20;94.10;;;;;;5075699;28;19933;-77
2022/03/13 06:17:58;;;;;;;;;;;3.20;93.90;;;;;;5073204;28;19993;-76
2022/03/13 06:20:25;;;;;;;;;;;3.20;94.00;;;;;;5072762;28;19984;-76
2022/03/13 06:22:51;;;;;;;;;;;3.30;93.90;;;;;;5071915;28;19928;-78
2022/03/13 06:25:18;;;;;;;;;;;3.40;93.20;;;;;;5074939;28;20011;-77
2022/03/13 06:27:44;;;;;;;;;;;3.50;93.40;;;;;;5075731;28;19939;-77
2022/03/13 06:30:13;;;;;;;;;;;3.60;93.40;;;;;;5089919;28;19924;-77
2022/03/13 06:32:39;;;;;;;;;;;3.60;94.00;;;;;;5074734;28;19966;-77
2022/03/13 06:35:06;;;;;;;;;;;3.80;94.10;;;;;;5077362;28;19931;-75
2022/03/13 06:37:32;;;;;;;;;;;3.80;93.50;;;;;;5074237;28;19924;-77
2022/03/13 06:39:59;;;;;;;;;;;3.80;94.10;;;;;;5072160;28;20026;-77
2022/03/13 06:42:26;;;;;;;;;;;4.00;93.80;;;;;;5073740;28;19925;-77
2022/03/13 06:44:52;;;;;;;;;;;4.20;93.60;;;;;;5074957;28;19928;-77
2022/03/13 06:47:19;;;;;;;;;;;4.40;93.50;;;;;;5073222;28;20020;-77
2022/03/13 06:49:46;;;;;;;;;;;4.60;93.00;;;;;;5072575;28;20401;-77
2022/03/13 06:52:12;;;;;;;;;;;4.90;92.10;;;;;;5071126;28;19931;-77
2022/03/13 06:54:40;;;;;;;;;;;5.10;91.70;;;;;;5071747;28;19946;-81
2022/03/13 06:57:06;;;;;;;;;;;5.20;91.40;;;;;;5073522;28;19932;-77
2022/03/13 06:59:33;;;;;;;;;;;5.20;92.10;;;;;;5072605;28;20011;-77
2022/03/13 07:01:59;;;;;;;;;;;5.40;91.60;;;;;;5072102;28;19920;-77
2022/03/13 07:04:26;;;;;;;;;;;5.50;90.50;;;;;;5070809;28;19924;-77
2022/03/13 07:06:52;;;;;;;;;;;5.50;90.70;;;;;;5070371;28;19932;-77
2022/03/13 07:09:19;;;;;;;;;;;5.60;91.10;;;;;;5072220;28;19931;-77
2022/03/13 07:11:49;;;;;;;;;;;5.70;91.00;;;;;;5072068;28;19931;-77
2022/03/13 07:14:18;;;;;;;;;;;5.80;91.00;;;;;;5074785;28;19932;-77
2022/03/13 07:16:45;;;;;;;;;;;6.00;90.50;;;;;;5073769;28;20019;-78
2022/03/13 07:19:11;;;;;;;;;;;6.00;89.50;;;;;;5075093;28;19928;-78
2022/03/13 07:21:39;;;;;;;;;;;6.20;89.00;;;;;;5075971;28;20282;-77
2022/03/13 07:24:05;;;;;;;;;;;6.40;87.50;;;;;;5078338;28;20015;-77
2022/03/13 07:26:32;;;;;;;;;;;6.60;87.80;;;;;;5076679;28;19935;-77
2022/03/13 07:29:01;;;;;;;;;;;6.70;87.20;;;;;;5071739;28;19931;-78
2022/03/13 07:31:27;;;;;;;;;;;6.80;86.70;;;;;;5076475;28;19925;-78
2022/03/13 07:33:54;;;;;;;;;;;6.80;83.40;;;;;;5074154;28;20663;-78
2022/03/13 07:36:20;;;;;;;;;;;6.80;83.70;;;;;;5080063;28;20383;-79
2022/03/13 07:38:47;;;;;;;;;;;6.80;85.60;;;;;;5073812;28;19924;-77
2022/03/13 07:41:13;;;;;;;;;;;6.80;85.30;;;;;;5083098;28;19931;-77
2022/03/13 07:43:40;;;;;;;;;;;6.80;84.90;;;;;;5075765;28;19925;-76
2022/03/13 07:46:07;;;;;;;;;;;6.70;84.20;;;;;;5073508;28;19925;-77
2022/03/13 07:48:34;;;;;;;;;;;6.70;83.30;;;;;;5071457;28;19924;-77
2022/03/13 07:51:01;;;;;;;;;;;6.70;84.10;;;;;;5073251;28;19950;-77
2022/03/13 07:53:28;;;;;;;;;;;6.70;83.10;;;;;;5074801;28;20030;-77
2022/03/13 07:55:54;;;;;;;;;;;6.70;84.60;;;;;;5073873;28;20016;-78
2022/03/13 07:58:21;;;;;;;;;;;6.70;84.20;;;;;;5072783;28;19924;-78
2022/03/13 08:00:48;;;;;;;;;;;6.70;84.30;;;;;;5075878;28;19924;-77
2022/03/13 08:03:17;;;;;;;;;;;6.80;84.90;;;;;;5073204;28;19925;-77
2022/03/13 08:05:44;;;;;;;;;;;7.00;85.50;;;;;;5078038;28;20001;-82
2022/03/13 08:08:10;;;;;;;;;;;7.10;84.60;;;;;;5074394;28;19924;-78
2022/03/13 08:10:37;;;;;;;;;;;7.20;84.50;;;;;;5074311;28;19924;-77
2022/03/13 08:13:03;;;;;;;;;;;7.30;83.60;;;;;;5084659;28;20003;-76
2022/03/13 08:15:30;;;;;;;;;;;7.40;84.50;;;;;;5086569;28;19950;-76
2022/03/13 08:17:56;;;;;;;;;;;7.40;83.90;;;;;;5082809;28;20008;-78
2022/03/13 08:20:23;;;;;;;;;;;7.50;82.90;;;;;;5072551;28;19931;-79
2022/03/13 08:22:50;;;;;;;;;;;7.50;84.00;;;;;;5081123;28;19959;-78
2022/03/13 08:25:19;;;;;;;;;;;7.60;83.90;;;;;;5079164;28;20259;-78
2022/03/13 08:27:45;;;;;;;;;;;7.60;85.60;;;;;;5079655;28;19973;-82
2022/03/13 08:30:13;;;;;;;;;;;7.70;83.80;;;;;;5074725;28;20111;-78
2022/03/13 08:32:39;;;;;;;;;;;7.80;83.30;;;;;;5080380;28;19935;-78
2022/03/13 08:35:06;;;;;;;;;;;7.90;83.50;;;;;;5080803;28;19963;-79
2022/03/13 08:37:32;;;;;;;;;;;8.00;82.80;;;;;;5086115;28;19935;-78
2022/03/13 08:39:59;;;;;;;;;;;8.00;84.60;;;;;;5082295;28;19974;-79
2022/03/13 08:42:25;;;;;;;;;;;8.10;82.80;;;;;;5083869;28;20001;-78
2022/03/13 08:44:52;;;;;;;;;;;8.20;82.60;;;;;;5082230;28;19924;-79
2022/03/13 08:47:18;;;;;;;;;;;8.30;81.50;;;;;;5087640;28;20383;-79
2022/03/13 08:49:45;;;;;;;;;;;8.40;81.40;;;;;;5083619;28;19928;-81
2022/03/13 08:52:12;;;;;;;;;;;8.50;81.00;;;;;;5081779;28;19962;-78
2022/03/13 08:54:38;;;;;;;;;;;8.60;82.20;;;;;;5078064;28;19934;-79
2022/03/13 08:57:05;;;;;;;;;;;8.60;82.10;;;;;;5070896;28;19928;-79
2022/03/13 08:59:32;;;;;;;;;;;8.80;79.80;;;;;;5088909;28;20043;-79
2022/03/13 09:01:59;;;;;;;;;;;8.90;82.10;;;;;;5088074;28;19971;-79
2022/03/13 09:04:26;;;;;;;;;;;9.10;84.10;;;;;;5078761;28;19935;-79
2022/03/13 09:06:54;;;;;;;;;;;9.30;82.20;;;;;;5086956;28;19932;-80
2022/03/13 09:09:21;;;;;;;;;;;9.50;77.80;;;;;;5080989;28;19977;-79
2022/03/13 09:11:47;;;;;;;;;;;9.70;79.60;;;;;;5073752;28;20450;-79
2022/03/13 09:14:14;;;;;;;;;;;9.90;79.10;;;;;;5093159;28;19932;-80
2022/03/13 09:16:42;;;;;;;;;;;10.00;78.90;;;;;;5081305;28;19924;-79
2022/03/13 09:19:09;;;;;;;;;;;10.20;79.50;;;;;;5075371;28;20634;-79
2022/03/13 09:21:38;;;;;;;;;;;10.30;80.40;;;;;;5078859;28;20404;-82
2022/03/13 09:24:05;;;;;;;;;;;10.50;77.20;;;;;;5082420;28;19932;-79
2022/03/13 09:26:32;;;;;;;;;;;10.70;78.00;;;;;;5076323;28;19924;-79
2022/03/13 09:28:58;;;;;;;;;;;10.90;78.20;;;;;;5082496;28;20386;-79
2022/03/13 09:31:25;;;;;;;;;;;10.90;76.30;;;;;;5082464;28;19928;-79
2022/03/13 09:33:51;;;;;;;;;;;11.00;75.90;;;;;;5085081;28;19935;-82
2022/03/13 09:36:18;;;;;;;;;;;11.00;75.80;;;;;;5081735;28;19935;-79
2022/03/13 09:38:45;;;;;;;;;;;11.10;73.80;;;;;;5088460;28;19928;-78
2022/03/13 09:41:12;;;;;;;;;;;11.20;74.30;;;;;;5084003;28;19932;-79
2022/03/13 09:43:38;;;;;;;;;;;11.40;74.30;;;;;;5085840;28;19928;-79
2022/03/13 09:46:05;;;;;;;;;;;11.60;76.60;;;;;;5088463;28;19931;-79
2022/03/13 09:48:32;;;;;;;;;;;11.70;75.50;;;;;;5085636;28;20574;-79
2022/03/13 09:50:58;;;;;;;;;;;11.90;75.30;;;;;;5079713;28;19928;-79
2022/03/13 09:53:25;;;;;;;;;;;12.10;75.20;;;;;;5080671;28;19928;-79
2022/03/13 09:55:51;;;;;;;;;;;12.20;75.00;;;;;;5083714;28;20041;-78
2022/03/13 09:58:18;;;;;;;;;;;12.40;73.10;;;;;;5082210;28;20389;-79
2022/03/13 10:00:44;;;;;;;;;;;12.50;74.10;;;;;;5084367;28;19931;-79
2022/03/13 10:03:13;;;;;;;;;;;12.50;72.90;;;;;;5083938;28;19928;-79
2022/03/13 10:05:39;;;;;;;;;;;12.70;72.80;;;;;;5090229;28;19935;-79
2022/03/13 10:08:06;;;;;;;;;;;12.80;70.50;;;;;;5088039;28;19927;-79
2022/03/13 10:10:33;;;;;;;;;;;12.90;70.20;;;;;;5087929;28;20010;-82
2022/03/13 10:13:00;;;;;;;;;;;13.00;71.30;;;;;;5085375;28;19928;-80
2022/03/13 10:15:26;;;;;;;;;;;13.00;70.80;;;;;;5085633;28;19928;-78
2022/03/13 10:17:53;;;;;;;;;;;13.00;69.80;;;;;;5081868;28;19928;-84
2022/03/13 10:20:19;;;;;;;;;;;13.00;69.90;;;;;;5082274;28;19975;-78
2022/03/13 10:22:46;;;;;;;;;;;12.80;69.40;;;;;;5079010;28;19955;-79
2022/03/13 10:25:14;;;;;;;;;;;13.00;71.00;;;;;;5086550;28;19942;-81
2022/03/13 10:27:40;;;;;;;;;;;13.00;70.30;;;;;;5084877;28;19931;-78
2022/03/13 10:30:07;;;;;;;;;;;13.00;68.10;;;;;;5094599;28;19935;-80
2022/03/13 10:32:34;;;;;;;;;;;12.80;67.80;;;;;;5083703;28;20318;-83
2022/03/13 10:35:01;;;;;;;;;;;12.80;67.70;;;;;;5088418;28;20017;-79
2022/03/13 10:37:28;;;;;;;;;;;12.80;69.10;;;;;;5076776;28;19932;-78
2022/03/13 10:39:54;;;;;;;;;;;12.80;66.90;;;;;;5081396;28;19936;-78
2022/03/13 10:42:25;;;;;;;;;;;12.80;68.20;;;;;;5084427;28;19935;-80
2022/03/13 10:44:52;;;;;;;;;;;12.80;67.00;;;;;;5078808;28;19933;-80
2022/03/13 10:47:19;;;;;;;;;;;12.90;67.50;;;;;;5083036;28;20582;-78
2022/03/13 10:49:46;;;;;;;;;;;12.90;67.90;;;;;;5083096;28;19971;-80
2022/03/13 10:52:13;;;;;;;;;;;13.00;66.40;;;;;;5089005;28;20035;-78
2022/03/13 10:54:39;;;;;;;;;;;12.70;66.20;;;;;;5078873;28;19931;-81
2022/03/13 10:57:06;;;;;;;;;;;12.70;64.60;;;;;;5084711;28;19979;-80
2022/03/13 10:59:33;;;;;;;;;;;12.50;64.50;;;;;;5081182;28;19929;-79
2022/03/13 11:01:59;;;;;;;;;;;12.60;66.10;;;;;;5079160;28;19924;-83
2022/03/13 11:04:26;;;;;;;;;;;12.50;64.40;;;;;;5087486;28;19924;-80
2022/03/13 11:06:53;;;;;;;;;;;12.50;63.50;;;;;;5078267;28;19927;-79
2022/03/13 11:09:19;;;;;;;;;;;12.70;64.00;;;;;;5077858;28;20723;-80
2022/03/13 11:11:46;;;;;;;;;;;12.70;64.60;;;;;;5077285;28;20432;-84
2022/03/13 11:14:16;;;;;;;;;;;12.80;63.60;;;;;;5086910;28;19975;-80
2022/03/13 11:16:43;;;;;;;;;;;12.90;63.50;;;;;;5077861;28;20027;-78
2022/03/13 11:19:10;;;;;;;;;;;13.20;62.90;;;;;;5075962;28;20322;-81
2022/03/13 11:21:36;;;;;;;;;;;13.20;62.10;;;;;;5094918;28;19928;-80
2022/03/13 11:24:03;;;;;;;;;;;13.30;63.00;;;;;;5071030;28;20298;-78
2022/03/13 11:26:31;;;;;;;;;;;13.40;63.40;;;;;;5078541;28;19927;-78
2022/03/13 11:28:58;;;;;;;;;;;13.20;58.30;;;;;;5081560;28;19924;-78
2022/03/13 11:31:25;;;;;;;;;;;13.30;59.50;;;;;;5079711;28;19932;-79
2022/03/13 11:33:51;;;;;;;;;;;13.20;59.20;;;;;;5072342;28;19924;-79
2022/03/13 11:36:18;;;;;;;;;;;13.20;60.00;;;;;;5078872;28;19931;-79
2022/03/13 11:38:45;;;;;;;;;;;13.20;60.70;;;;;;5077380;28;19932;-78
2022/03/13 11:41:13;;;;;;;;;;;13.30;60.80;;;;;;5073530;28;19935;-80
2022/03/13 11:43:40;;;;;;;;;;;13.20;60.00;;;;;;5077805;28;19929;-79
2022/03/13 11:46:06;;;;;;;;;;;13.20;58.20;;;;;;5082247;28;19924;-81
2022/03/13 11:48:33;;;;;;;;;;;13.20;58.60;;;;;;5086329;28;19935;-78
2022/03/13 11:51:01;;;;;;;;;;;13.20;56.40;;;;;;5073522;28;20034;-78
2022/03/13 11:53:27;;;;;;;;;;;13.10;56.60;;;;;;5081131;28;19924;-79
2022/03/13 11:55:54;;;;;;;;;;;12.90;58.50;;;;;;5076117;28;19925;-83
2022/03/13 11:58:20;;;;;;;;;;;13.00;59.20;;;;;;5079324;28;20326;-80
2022/03/13 12:00:47;;;;;;;;;;;12.90;60.00;;;;;;5077422;28;20295;-79
2022/03/13 12:03:14;;;;;;;;;;;12.90;58.70;;;;;;5077695;28;19932;-78
2022/03/13 12:05:40;;;;;;;;;;;13.00;58.10;;;;;;5081171;28;19935;-78
2022/03/13 12:08:08;;;;;;;;;;;13.00;57.00;;;;;;5079656;28;19932;-78
2022/03/13 12:10:37;;;;;;;;;;;13.00;58.20;;;;;;5074869;28;20980;-83
2022/03/13 12:13:04;;;;;;;;;;;13.10;58.90;;;;;;5070238;28;19932;-84
2022/03/13 12:15:31;;;;;;;;;;;13.10;56.80;;;;;;5076994;28;19930;-78
2022/03/13 12:17:58;;;;;;;;;;;13.10;57.20;;;;;;5082623;28;19931;-78
2022/03/13 12:20:24;;;;;;;;;;;13.10;56.90;;;;;;5075114;28;20026;-80
2022/03/13 12:22:53;;;;;;;;;;;13.10;56.30;;;;;;5083622;28;19935;-79
2022/03/13 12:25:19;;;;;;;;;;;13.10;54.90;;;;;;5083250;28;19935;-78
2022/03/13 12:27:46;;;;;;;;;;;13.10;55.70;;;;;;5077887;28;19928;-78
2022/03/13 12:30:12;;;;;;;;;;;13.10;55.50;;;;;;5097105;28;19931;-78
2022/03/13 12:32:39;;;;;;;;;;;13.10;56.20;;;;;;5083827;28;19931;-79
2022/03/13 12:35:06;;;;;;;;;;;13.00;55.60;;;;;;5073270;28;19932;-83
2022/03/13 12:37:32;;;;;;;;;;;13.00;56.20;;;;;;5085931;28;20257;-78
2022/03/13 12:40:00;;;;;;;;;;;13.10;56.00;;;;;;5077483;28;20406;-77
2022/03/13 12:42:27;;;;;;;;;;;13.00;55.10;;;;;;5070896;28;20105;-78
2022/03/13 12:44:53;;;;;;;;;;;13.10;56.20;;;;;;5084032;28;20047;-77
2022/03/13 12:47:20;;;;;;;;;;;13.20;57.60;;;;;;5080830;28;19928;-78
2022/03/13 12:49:47;;;;;;;;;;;13.40;55.10;;;;;;5084124;28;19932;-78
2022/03/13 12:52:15;;;;;;;;;;;13.40;55.90;;;;;;5082035;28;20051;-78
2022/03/13 12:54:42;;;;;;;;;;;13.60;56.80;;;;;;5082639;28;19932;-79
2022/03/13 12:57:10;;;;;;;;;;;13.80;55.10;;;;;;5084492;28;20441;-82
2022/03/13 12:59:38;;;;;;;;;;;14.00;55.40;;;;;;5085983;28;19954;-78
2022/03/13 13:02:05;;;;;;;;;;;14.00;52.60;;;;;;5084210;28;20091;-77
2022/03/13 13:04:31;;;;;;;;;;;14.10;54.70;;;;;;5085111;28;19927;-78
2022/03/13 13:06:58;;;;;;;;;;;14.10;53.70;;;;;;5084292;28;19925;-78
2022/03/13 13:09:24;;;;;;;;;;;14.10;52.60;;;;;;5086152;28;19925;-79
2022/03/13 13:11:51;;;;;;;;;;;14.20;52.70;;;;;;5082063;28;19934;-78
2022/03/13 13:14:17;;;;;;;;;;;14.20;52.50;;;;;;5073892;28;19951;-78
2022/03/13 13:16:44;;;;;;;;;;;14.20;51.40;;;;;;5075984;28;19931;-78
2022/03/13 13:19:11;;;;;;;;;;;14.30;50.50;;;;;;5080699;28;20337;-81
2022/03/13 13:21:39;;;;;;;;;;;14.30;51.20;;;;;;5084310;28;19932;-78
2022/03/13 13:24:05;;;;;;;;;;;14.30;51.50;;;;;;5084085;28;19967;-78
2022/03/13 13:26:34;;;;;;;;;;;14.30;51.30;;;;;;5074107;28;19935;-78
2022/03/13 13:29:01;;;;;;;;;;;14.40;51.50;;;;;;5081327;28;19977;-77
2022/03/13 13:31:27;;;;;;;;;;;14.30;51.10;;;;;;5082015;28;19928;-78
2022/03/13 13:33:54;;;;;;;;;;;14.40;52.10;;;;;;5080213;28;19950;-78
2022/03/13 13:36:20;;;;;;;;;;;14.40;51.70;;;;;;5081015;28;19932;-78
2022/03/13 13:38:47;;;;;;;;;;;14.30;50.60;;;;;;5082139;28;19924;-78
2022/03/13 13:41:14;;;;;;;;;;;14.40;51.40;;;;;;5084232;28;19935;-80
2022/03/13 13:43:41;;;;;;;;;;;14.50;50.10;;;;;;5081246;28;19964;-79
2022/03/13 13:46:08;;;;;;;;;;;14.50;50.60;;;;;;5083638;28;19924;-79
2022/03/13 13:48:35;;;;;;;;;;;14.60;51.30;;;;;;5084079;28;20319;-78
2022/03/13 13:51:02;;;;;;;;;;;14.60;50.70;;;;;;5100670;28;20013;-78
2022/03/13 13:53:28;;;;;;;;;;;14.70;50.30;;;;;;5091043;28;19928;-83
2022/03/13 13:55:55;;;;;;;;;;;14.70;50.50;;;;;;5084043;28;19928;-79
2022/03/13 13:58:22;;;;;;;;;;;14.70;50.60;;;;;;5077142;28;19928;-79
2022/03/13 14:00:49;;;;;;;;;;;14.70;50.10;;;;;;5072711;28;19935;-80
2022/03/13 14:03:15;;;;;;;;;;;14.70;50.40;;;;;;5081480;28;20331;-83
2022/03/13 14:05:42;;;;;;;;;;;14.70;50.00;;;;;;5081777;28;20015;-79
2022/03/13 14:08:08;;;;;;;;;;;14.70;50.10;;;;;;5076202;28;19929;-78
2022/03/13 14:10:35;;;;;;;;;;;14.80;49.70;;;;;;5081760;28;20014;-81
2022/03/13 14:13:01;;;;;;;;;;;14.90;50.20;;;;;;5084943;28;21548;-79
2022/03/13 14:15:28;;;;;;;;;;;14.90;49.40;;;;;;5081398;28;19929;-80
2022/03/13 14:17:55;;;;;;;;;;;15.00;52.40;;;;;;5074414;28;19952;-78
2022/03/13 14:20:21;;;;;;;;;;;15.10;50.80;;;;;;5076595;28;20019;-78
2022/03/13 14:22:48;;;;;;;;;;;15.20;50.20;;;;;;5084663;28;19931;-78